sensor_id;sensor_type;location;lat;lon;timestamp;P1;durP1;ratioP1;P2;durP2;ratioP2
16304;SDS011;8261;47.678;-122.174;2023-06-26T00:00:08;2.67;;;2.27;;
16304;SDS011;8261;47.678;-122.174;2023-06-26T00:02:42;3.90;;;2.63;;
16304;SDS011;8261;47.678;-122.174;2023-06-26T00:05:13;4.80;;;2.37;;
16304;SDS011;8261;47.678;-122.174;2023-06-26T00:07:44;3.33;;;2.30;;
16304;SDS011;8261;47.678;-122.174;2023-06-26T00:10:15;4.20;;;1.90;;
16304;SDS011;8261;47.678;-122.174;2023-06-26T00:12:47;3.07;;;2.27;;
16304;SDS011;8261;47.678;-122.174;2023-06-26T00:15:18;3.87;;;2.37;;
16304;SDS011;8261;47.678;-122.174;2023-06-26T00:17:50;4.37;;;2.33;;
16304;SDS011;8261;47.678;-122.174;2023-06-26T00:20:23;3.07;;;2.20;;
16304;SDS011;8261;47.678;-122.174;2023-06-26T00:22:54;3.40;;;2.50;;
16304;SDS011;8261;47.678;-122.174;2023-06-26T00:25:26;3.60;;;2.50;;
16304;SDS011;8261;47.678;-122.174;2023-06-26T00:27:57;3.07;;;2.43;;
16304;SDS011;8261;47.678;-122.174;2023-06-26T00:30:29;3.43;;;2.27;;
16304;SDS011;8261;47.678;-122.174;2023-06-26T00:33:01;3.43;;;2.07;;
16304;SDS011;8261;47.678;-122.174;2023-06-26T00:35:32;2.40;;;2.13;;
16304;SDS011;8261;47.678;-122.174;2023-06-26T00:38:03;2.67;;;2.30;;
16304;SDS011;8261;47.678;-122.174;2023-06-26T00:40:34;4.70;;;2.47;;
16304;SDS011;8261;47.678;-122.174;2023-06-26T00:43:06;5.63;;;2.60;;
16304;SDS011;8261;47.678;-122.174;2023-06-26T00:45:37;3.20;;;2.20;;
16304;SDS011;8261;47.678;-122.174;2023-06-26T00:48:11;2.43;;;2.20;;
16304;SDS011;8261;47.678;-122.174;2023-06-26T00:50:43;2.27;;;2.07;;
16304;SDS011;8261;47.678;-122.174;2023-06-26T00:53:16;4.90;;;2.70;;
16304;SDS011;8261;47.678;-122.174;2023-06-26T00:55:48;3.03;;;2.03;;
16304;SDS011;8261;47.678;-122.174;2023-06-26T00:58:19;2.37;;;2.10;;
16304;SDS011;8261;47.678;-122.174;2023-06-26T01:00:52;3.13;;;2.33;;
16304;SDS011;8261;47.678;-122.174;2023-06-26T01:03:25;4.33;;;2.17;;
16304;SDS011;8261;47.678;-122.174;2023-06-26T01:05:57;4.27;;;2.17;;
16304;SDS011;8261;47.678;-122.174;2023-06-26T01:08:30;2.53;;;2.23;;
16304;SDS011;8261;47.678;-122.174;2023-06-26T01:11:02;4.30;;;2.30;;
16304;SDS011;8261;47.678;-122.174;2023-06-26T01:13:34;2.65;;;2.25;;
16304;SDS011;8261;47.678;-122.174;2023-06-26T01:16:06;3.45;;;2.25;;
16304;SDS011;8261;47.678;-122.174;2023-06-26T01:18:40;3.75;;;2.28;;
16304;SDS011;8261;47.678;-122.174;2023-06-26T01:21:13;3.38;;;2.55;;
16304;SDS011;8261;47.678;-122.174;2023-06-26T01:23:57;3.20;;;2.42;;
16304;SDS011;8261;47.678;-122.174;2023-06-26T01:26:34;3.70;;;2.55;;
16304;SDS011;8261;47.678;-122.174;2023-06-26T01:29:06;2.58;;;1.92;;
16304;SDS011;8261;47.678;-122.174;2023-06-26T01:31:39;2.97;;;2.10;;
16304;SDS011;8261;47.678;-122.174;2023-06-26T01:34:12;3.05;;;2.25;;
16304;SDS011;8261;47.678;-122.174;2023-06-26T01:36:44;2.53;;;2.33;;
16304;SDS011;8261;47.678;-122.174;2023-06-26T01:39:19;3.10;;;2.63;;
16304;SDS011;8261;47.678;-122.174;2023-06-26T01:41:52;2.40;;;2.17;;
16304;SDS011;8261;47.678;-122.174;2023-06-26T01:44:26;3.53;;;2.47;;
16304;SDS011;8261;47.678;-122.174;2023-06-26T01:46:59;4.35;;;2.15;;
16304;SDS011;8261;47.678;-122.174;2023-06-26T01:49:35;4.65;;;2.05;;
16304;SDS011;8261;47.678;-122.174;2023-06-26T01:52:16;4.90;;;2.25;;
16304;SDS011;8261;47.678;-122.174;2023-06-26T01:54:55;2.53;;;2.33;;
16304;SDS011;8261;47.678;-122.174;2023-06-26T01:57:36;6.47;;;2.50;;
16304;SDS011;8261;47.678;-122.174;2023-06-26T02:00:09;2.63;;;2.40;;
16304;SDS011;8261;47.678;-122.174;2023-06-26T02:02:42;4.78;;;2.10;;
16304;SDS011;8261;47.678;-122.174;2023-06-26T02:05:14;4.13;;;1.90;;
16304;SDS011;8261;47.678;-122.174;2023-06-26T02:07:45;3.35;;;2.60;;
16304;SDS011;8261;47.678;-122.174;2023-06-26T02:10:16;2.97;;;2.28;;
16304;SDS011;8261;47.678;-122.174;2023-06-26T02:12:49;3.57;;;2.20;;
16304;SDS011;8261;47.678;-122.174;2023-06-26T02:15:20;8.30;;;2.60;;
16304;SDS011;8261;47.678;-122.174;2023-06-26T02:17:52;2.27;;;2.07;;
16304;SDS011;8261;47.678;-122.174;2023-06-26T02:20:23;2.13;;;1.93;;
16304;SDS011;8261;47.678;-122.174;2023-06-26T02:22:54;5.33;;;2.30;;
16304;SDS011;8261;47.678;-122.174;2023-06-26T02:25:25;3.00;;;2.33;;
16304;SDS011;8261;47.678;-122.174;2023-06-26T02:27:57;2.50;;;2.23;;
16304;SDS011;8261;47.678;-122.174;2023-06-26T02:30:28;2.73;;;2.20;;
16304;SDS011;8261;47.678;-122.174;2023-06-26T02:32:59;3.10;;;2.27;;
16304;SDS011;8261;47.678;-122.174;2023-06-26T02:35:30;4.80;;;2.33;;
16304;SDS011;8261;47.678;-122.174;2023-06-26T02:38:02;3.17;;;2.27;;
16304;SDS011;8261;47.678;-122.174;2023-06-26T02:40:33;4.40;;;2.03;;
16304;SDS011;8261;47.678;-122.174;2023-06-26T02:43:06;3.33;;;2.27;;
16304;SDS011;8261;47.678;-122.174;2023-06-26T02:45:37;5.67;;;2.53;;
16304;SDS011;8261;47.678;-122.174;2023-06-26T02:48:08;2.57;;;2.10;;
16304;SDS011;8261;47.678;-122.174;2023-06-26T02:50:39;3.60;;;2.47;;
16304;SDS011;8261;47.678;-122.174;2023-06-26T02:53:13;2.93;;;2.10;;
16304;SDS011;8261;47.678;-122.174;2023-06-26T02:55:44;2.43;;;2.23;;
16304;SDS011;8261;47.678;-122.174;2023-06-26T02:58:18;3.33;;;2.27;;
16304;SDS011;8261;47.678;-122.174;2023-06-26T03:00:50;3.00;;;2.70;;
16304;SDS011;8261;47.678;-122.174;2023-06-26T03:03:21;4.60;;;2.10;;
16304;SDS011;8261;47.678;-122.174;2023-06-26T03:05:53;5.20;;;2.10;;
16304;SDS011;8261;47.678;-122.174;2023-06-26T03:08:25;3.67;;;2.40;;
16304;SDS011;8261;47.678;-122.174;2023-06-26T03:10:57;3.30;;;2.40;;
16304;SDS011;8261;47.678;-122.174;2023-06-26T03:13:29;6.43;;;4.47;;
16304;SDS011;8261;47.678;-122.174;2023-06-26T03:16:00;2.90;;;2.57;;
16304;SDS011;8261;47.678;-122.174;2023-06-26T03:18:31;4.37;;;2.77;;
16304;SDS011;8261;47.678;-122.174;2023-06-26T03:21:02;4.43;;;2.53;;
16304;SDS011;8261;47.678;-122.174;2023-06-26T03:23:34;4.23;;;2.30;;
16304;SDS011;8261;47.678;-122.174;2023-06-26T03:26:05;2.87;;;2.27;;
16304;SDS011;8261;47.678;-122.174;2023-06-26T03:28:38;3.43;;;2.90;;
16304;SDS011;8261;47.678;-122.174;2023-06-26T03:31:10;6.73;;;3.70;;
16304;SDS011;8261;47.678;-122.174;2023-06-26T03:33:41;6.17;;;3.00;;
16304;SDS011;8261;47.678;-122.174;2023-06-26T03:36:12;3.17;;;2.60;;
16304;SDS011;8261;47.678;-122.174;2023-06-26T03:38:43;3.73;;;2.60;;
16304;SDS011;8261;47.678;-122.174;2023-06-26T03:41:14;17.20;;;6.90;;
16304;SDS011;8261;47.678;-122.174;2023-06-26T03:43:47;9.87;;;3.83;;
16304;SDS011;8261;47.678;-122.174;2023-06-26T03:46:18;3.07;;;2.73;;
16304;SDS011;8261;47.678;-122.174;2023-06-26T03:48:50;4.10;;;2.83;;
16304;SDS011;8261;47.678;-122.174;2023-06-26T03:51:21;4.83;;;2.80;;
16304;SDS011;8261;47.678;-122.174;2023-06-26T03:53:52;4.83;;;2.43;;
16304;SDS011;8261;47.678;-122.174;2023-06-26T03:56:23;4.50;;;3.07;;
16304;SDS011;8261;47.678;-122.174;2023-06-26T03:58:57;5.73;;;2.87;;
16304;SDS011;8261;47.678;-122.174;2023-06-26T04:01:28;3.40;;;3.03;;
16304;SDS011;8261;47.678;-122.174;2023-06-26T04:04:00;4.10;;;3.03;;
16304;SDS011;8261;47.678;-122.174;2023-06-26T04:06:31;4.07;;;3.07;;
16304;SDS011;8261;47.678;-122.174;2023-06-26T04:09:02;3.00;;;2.63;;
16304;SDS011;8261;47.678;-122.174;2023-06-26T04:11:33;3.57;;;2.67;;
16304;SDS011;8261;47.678;-122.174;2023-06-26T04:14:06;3.10;;;2.53;;
16304;SDS011;8261;47.678;-122.174;2023-06-26T04:16:38;4.50;;;2.70;;
16304;SDS011;8261;47.678;-122.174;2023-06-26T04:19:08;4.87;;;2.50;;
16304;SDS011;8261;47.678;-122.174;2023-06-26T04:21:40;4.40;;;2.40;;
16304;SDS011;8261;47.678;-122.174;2023-06-26T04:24:12;3.23;;;2.50;;
16304;SDS011;8261;47.678;-122.174;2023-06-26T04:26:43;9.67;;;2.53;;
16304;SDS011;8261;47.678;-122.174;2023-06-26T04:29:16;2.97;;;2.30;;
16304;SDS011;8261;47.678;-122.174;2023-06-26T04:31:47;3.83;;;2.53;;
16304;SDS011;8261;47.678;-122.174;2023-06-26T04:34:18;3.93;;;2.27;;
16304;SDS011;8261;47.678;-122.174;2023-06-26T04:36:49;3.57;;;2.47;;
16304;SDS011;8261;47.678;-122.174;2023-06-26T04:39:20;2.80;;;2.40;;
16304;SDS011;8261;47.678;-122.174;2023-06-26T04:41:51;2.60;;;2.40;;
16304;SDS011;8261;47.678;-122.174;2023-06-26T04:44:24;4.63;;;2.20;;
16304;SDS011;8261;47.678;-122.174;2023-06-26T04:46:55;2.63;;;2.40;;
16304;SDS011;8261;47.678;-122.174;2023-06-26T04:49:26;3.40;;;2.50;;
16304;SDS011;8261;47.678;-122.174;2023-06-26T04:51:58;4.37;;;2.20;;
16304;SDS011;8261;47.678;-122.174;2023-06-26T04:54:29;2.63;;;2.40;;
16304;SDS011;8261;47.678;-122.174;2023-06-26T04:57:00;3.53;;;2.20;;
16304;SDS011;8261;47.678;-122.174;2023-06-26T04:59:33;2.70;;;2.20;;
16304;SDS011;8261;47.678;-122.174;2023-06-26T05:02:04;3.53;;;2.27;;
16304;SDS011;8261;47.678;-122.174;2023-06-26T05:04:36;2.40;;;2.20;;
16304;SDS011;8261;47.678;-122.174;2023-06-26T05:07:10;2.67;;;2.03;;
16304;SDS011;8261;47.678;-122.174;2023-06-26T05:09:42;2.77;;;2.37;;
16304;SDS011;8261;47.678;-122.174;2023-06-26T05:12:15;2.30;;;2.10;;
16304;SDS011;8261;47.678;-122.174;2023-06-26T05:14:48;2.27;;;2.00;;
16304;SDS011;8261;47.678;-122.174;2023-06-26T05:17:19;2.07;;;1.87;;
16304;SDS011;8261;47.678;-122.174;2023-06-26T05:19:50;2.30;;;2.10;;
16304;SDS011;8261;47.678;-122.174;2023-06-26T05:22:21;2.63;;;2.30;;
16304;SDS011;8261;47.678;-122.174;2023-06-26T05:24:54;4.03;;;2.13;;
16304;SDS011;8261;47.678;-122.174;2023-06-26T05:27:28;3.20;;;2.07;;
16304;SDS011;8261;47.678;-122.174;2023-06-26T05:30:02;3.73;;;2.20;;
16304;SDS011;8261;47.678;-122.174;2023-06-26T05:32:33;2.47;;;2.27;;
16304;SDS011;8261;47.678;-122.174;2023-06-26T05:35:05;2.20;;;2.00;;
16304;SDS011;8261;47.678;-122.174;2023-06-26T05:37:37;3.10;;;2.30;;
16304;SDS011;8261;47.678;-122.174;2023-06-26T05:40:09;3.47;;;2.20;;
16304;SDS011;8261;47.678;-122.174;2023-06-26T05:42:41;2.37;;;2.03;;
16304;SDS011;8261;47.678;-122.174;2023-06-26T05:45:16;2.33;;;2.13;;
16304;SDS011;8261;47.678;-122.174;2023-06-26T05:47:47;3.47;;;2.63;;
16304;SDS011;8261;47.678;-122.174;2023-06-26T05:50:19;3.10;;;2.30;;
16304;SDS011;8261;47.678;-122.174;2023-06-26T05:52:51;2.20;;;1.93;;
16304;SDS011;8261;47.678;-122.174;2023-06-26T05:55:23;3.47;;;2.23;;
16304;SDS011;8261;47.678;-122.174;2023-06-26T05:57:55;3.50;;;2.13;;
16304;SDS011;8261;47.678;-122.174;2023-06-26T06:00:31;2.90;;;2.50;;
16304;SDS011;8261;47.678;-122.174;2023-06-26T06:03:02;3.07;;;2.30;;
16304;SDS011;8261;47.678;-122.174;2023-06-26T06:05:34;5.40;;;2.13;;
16304;SDS011;8261;47.678;-122.174;2023-06-26T06:08:06;3.93;;;2.30;;
16304;SDS011;8261;47.678;-122.174;2023-06-26T06:10:36;5.10;;;2.10;;
16304;SDS011;8261;47.678;-122.174;2023-06-26T06:13:08;3.57;;;2.20;;
16304;SDS011;8261;47.678;-122.174;2023-06-26T06:15:41;3.63;;;2.50;;
16304;SDS011;8261;47.678;-122.174;2023-06-26T06:18:13;4.63;;;2.53;;
16304;SDS011;8261;47.678;-122.174;2023-06-26T06:20:44;3.00;;;2.53;;
16304;SDS011;8261;47.678;-122.174;2023-06-26T06:23:15;3.00;;;2.70;;
16304;SDS011;8261;47.678;-122.174;2023-06-26T06:25:46;4.60;;;2.73;;
16304;SDS011;8261;47.678;-122.174;2023-06-26T06:28:17;3.17;;;2.43;;
16304;SDS011;8261;47.678;-122.174;2023-06-26T06:30:51;3.33;;;2.40;;
16304;SDS011;8261;47.678;-122.174;2023-06-26T06:33:22;3.60;;;2.90;;
16304;SDS011;8261;47.678;-122.174;2023-06-26T06:35:53;3.70;;;2.53;;
16304;SDS011;8261;47.678;-122.174;2023-06-26T06:38:24;2.97;;;2.30;;
16304;SDS011;8261;47.678;-122.174;2023-06-26T06:40:56;4.87;;;2.60;;
16304;SDS011;8261;47.678;-122.174;2023-06-26T06:43:27;3.23;;;2.60;;
16304;SDS011;8261;47.678;-122.174;2023-06-26T06:46:00;2.97;;;2.07;;
16304;SDS011;8261;47.678;-122.174;2023-06-26T06:48:31;3.97;;;2.67;;
16304;SDS011;8261;47.678;-122.174;2023-06-26T06:51:02;2.80;;;2.60;;
16304;SDS011;8261;47.678;-122.174;2023-06-26T06:53:36;2.97;;;2.30;;
16304;SDS011;8261;47.678;-122.174;2023-06-26T06:56:08;3.10;;;2.80;;
16304;SDS011;8261;47.678;-122.174;2023-06-26T06:58:40;4.50;;;2.87;;
16304;SDS011;8261;47.678;-122.174;2023-06-26T07:01:15;3.77;;;2.53;;
16304;SDS011;8261;47.678;-122.174;2023-06-26T07:03:47;4.77;;;2.50;;
16304;SDS011;8261;47.678;-122.174;2023-06-26T07:06:18;2.67;;;2.20;;
16304;SDS011;8261;47.678;-122.174;2023-06-26T07:08:50;4.40;;;2.20;;
16304;SDS011;8261;47.678;-122.174;2023-06-26T07:11:22;2.53;;;2.33;;
16304;SDS011;8261;47.678;-122.174;2023-06-26T07:13:54;3.27;;;2.67;;
16304;SDS011;8261;47.678;-122.174;2023-06-26T07:16:27;4.63;;;2.70;;
16304;SDS011;8261;47.678;-122.174;2023-06-26T07:18:58;2.87;;;2.30;;
16304;SDS011;8261;47.678;-122.174;2023-06-26T07:21:30;5.43;;;2.80;;
16304;SDS011;8261;47.678;-122.174;2023-06-26T07:24:01;3.73;;;2.23;;
16304;SDS011;8261;47.678;-122.174;2023-06-26T07:26:32;3.03;;;2.73;;
16304;SDS011;8261;47.678;-122.174;2023-06-26T07:29:12;3.23;;;2.50;;
16304;SDS011;8261;47.678;-122.174;2023-06-26T07:31:46;3.20;;;2.70;;
16304;SDS011;8261;47.678;-122.174;2023-06-26T07:34:19;2.87;;;2.43;;
16304;SDS011;8261;47.678;-122.174;2023-06-26T07:36:50;3.20;;;2.60;;
16304;SDS011;8261;47.678;-122.174;2023-06-26T07:39:21;3.50;;;2.60;;
16304;SDS011;8261;47.678;-122.174;2023-06-26T07:41:53;2.80;;;2.40;;
16304;SDS011;8261;47.678;-122.174;2023-06-26T07:44:26;4.50;;;2.43;;
16304;SDS011;8261;47.678;-122.174;2023-06-26T07:46:58;3.07;;;2.77;;
16304;SDS011;8261;47.678;-122.174;2023-06-26T07:49:30;2.77;;;2.53;;
16304;SDS011;8261;47.678;-122.174;2023-06-26T07:52:01;3.97;;;2.60;;
16304;SDS011;8261;47.678;-122.174;2023-06-26T07:54:33;3.60;;;2.80;;
16304;SDS011;8261;47.678;-122.174;2023-06-26T07:57:05;2.90;;;2.60;;
16304;SDS011;8261;47.678;-122.174;2023-06-26T07:59:37;3.60;;;2.63;;
16304;SDS011;8261;47.678;-122.174;2023-06-26T08:02:11;3.83;;;2.40;;
16304;SDS011;8261;47.678;-122.174;2023-06-26T08:04:43;2.80;;;2.60;;
16304;SDS011;8261;47.678;-122.174;2023-06-26T08:07:14;3.50;;;2.60;;
16304;SDS011;8261;47.678;-122.174;2023-06-26T08:09:46;3.40;;;3.10;;
16304;SDS011;8261;47.678;-122.174;2023-06-26T08:12:18;4.17;;;3.00;;
16304;SDS011;8261;47.678;-122.174;2023-06-26T08:14:49;5.07;;;3.03;;
16304;SDS011;8261;47.678;-122.174;2023-06-26T08:17:22;3.63;;;2.70;;
16304;SDS011;8261;47.678;-122.174;2023-06-26T08:19:56;2.73;;;2.53;;
16304;SDS011;8261;47.678;-122.174;2023-06-26T08:22:27;3.03;;;2.70;;
16304;SDS011;8261;47.678;-122.174;2023-06-26T08:24:58;5.57;;;3.00;;
16304;SDS011;8261;47.678;-122.174;2023-06-26T08:27:30;3.43;;;2.80;;
16304;SDS011;8261;47.678;-122.174;2023-06-26T08:30:01;3.80;;;2.87;;
16304;SDS011;8261;47.678;-122.174;2023-06-26T08:32:35;3.43;;;2.87;;
16304;SDS011;8261;47.678;-122.174;2023-06-26T08:35:07;10.40;;;3.00;;
16304;SDS011;8261;47.678;-122.174;2023-06-26T08:37:38;4.63;;;2.67;;
16304;SDS011;8261;47.678;-122.174;2023-06-26T08:40:10;3.17;;;2.90;;
16304;SDS011;8261;47.678;-122.174;2023-06-26T08:42:42;3.37;;;2.97;;
16304;SDS011;8261;47.678;-122.174;2023-06-26T08:45:13;4.30;;;2.63;;
16304;SDS011;8261;47.678;-122.174;2023-06-26T08:47:47;5.33;;;2.90;;
16304;SDS011;8261;47.678;-122.174;2023-06-26T08:50:22;4.73;;;3.33;;
16304;SDS011;8261;47.678;-122.174;2023-06-26T08:52:57;4.37;;;2.87;;
16304;SDS011;8261;47.678;-122.174;2023-06-26T08:55:35;3.97;;;2.80;;
16304;SDS011;8261;47.678;-122.174;2023-06-26T08:58:08;3.73;;;3.10;;
16304;SDS011;8261;47.678;-122.174;2023-06-26T09:00:40;3.60;;;2.63;;
16304;SDS011;8261;47.678;-122.174;2023-06-26T09:03:13;3.17;;;2.83;;
16304;SDS011;8261;47.678;-122.174;2023-06-26T09:05:45;4.83;;;2.93;;
16304;SDS011;8261;47.678;-122.174;2023-06-26T09:08:16;4.47;;;3.00;;
16304;SDS011;8261;47.678;-122.174;2023-06-26T09:10:47;4.90;;;3.10;;
16304;SDS011;8261;47.678;-122.174;2023-06-26T09:13:19;8.33;;;3.53;;
16304;SDS011;8261;47.678;-122.174;2023-06-26T09:15:56;5.03;;;3.27;;
16304;SDS011;8261;47.678;-122.174;2023-06-26T09:18:30;4.20;;;2.90;;
16304;SDS011;8261;47.678;-122.174;2023-06-26T09:21:06;3.57;;;2.73;;
16304;SDS011;8261;47.678;-122.174;2023-06-26T09:23:39;7.30;;;3.23;;
16304;SDS011;8261;47.678;-122.174;2023-06-26T09:26:10;3.60;;;2.90;;
16304;SDS011;8261;47.678;-122.174;2023-06-26T09:28:44;6.10;;;3.20;;
16304;SDS011;8261;47.678;-122.174;2023-06-26T09:31:16;4.63;;;3.13;;
16304;SDS011;8261;47.678;-122.174;2023-06-26T09:34:09;4.30;;;3.30;;
16304;SDS011;8261;47.678;-122.174;2023-06-26T09:36:40;4.20;;;3.00;;
16304;SDS011;8261;47.678;-122.174;2023-06-26T09:39:14;4.80;;;2.83;;
16304;SDS011;8261;47.678;-122.174;2023-06-26T09:41:46;3.60;;;3.00;;
16304;SDS011;8261;47.678;-122.174;2023-06-26T09:44:17;5.23;;;3.27;;
16304;SDS011;8261;47.678;-122.174;2023-06-26T09:46:49;2.90;;;2.60;;
16304;SDS011;8261;47.678;-122.174;2023-06-26T09:49:23;3.63;;;2.80;;
16304;SDS011;8261;47.678;-122.174;2023-06-26T09:51:57;3.57;;;2.67;;
16304;SDS011;8261;47.678;-122.174;2023-06-26T09:54:32;2.93;;;2.40;;
16304;SDS011;8261;47.678;-122.174;2023-06-26T09:57:07;4.23;;;2.63;;
16304;SDS011;8261;47.678;-122.174;2023-06-26T09:59:40;5.47;;;2.63;;
16304;SDS011;8261;47.678;-122.174;2023-06-26T10:02:12;3.43;;;2.70;;
16304;SDS011;8261;47.678;-122.174;2023-06-26T10:04:45;3.03;;;2.70;;
16304;SDS011;8261;47.678;-122.174;2023-06-26T10:07:18;3.57;;;2.80;;
16304;SDS011;8261;47.678;-122.174;2023-06-26T10:09:50;3.33;;;2.43;;
16304;SDS011;8261;47.678;-122.174;2023-06-26T10:12:25;5.63;;;2.70;;
16304;SDS011;8261;47.678;-122.174;2023-06-26T10:14:59;2.63;;;2.43;;
16304;SDS011;8261;47.678;-122.174;2023-06-26T10:17:34;4.23;;;2.40;;
16304;SDS011;8261;47.678;-122.174;2023-06-26T10:20:09;5.33;;;2.43;;
16304;SDS011;8261;47.678;-122.174;2023-06-26T10:22:42;3.53;;;2.70;;
16304;SDS011;8261;47.678;-122.174;2023-06-26T10:25:17;3.97;;;2.40;;
16304;SDS011;8261;47.678;-122.174;2023-06-26T10:27:50;4.03;;;2.73;;
16304;SDS011;8261;47.678;-122.174;2023-06-26T10:30:24;4.30;;;2.70;;
16304;SDS011;8261;47.678;-122.174;2023-06-26T10:32:58;4.67;;;2.83;;
16304;SDS011;8261;47.678;-122.174;2023-06-26T10:35:33;5.07;;;3.03;;
16304;SDS011;8261;47.678;-122.174;2023-06-26T10:38:11;3.13;;;2.33;;
16304;SDS011;8261;47.678;-122.174;2023-06-26T10:40:43;3.43;;;2.33;;
16304;SDS011;8261;47.678;-122.174;2023-06-26T10:43:16;5.27;;;2.47;;
16304;SDS011;8261;47.678;-122.174;2023-06-26T10:45:49;3.67;;;2.20;;
16304;SDS011;8261;47.678;-122.174;2023-06-26T10:48:24;4.77;;;2.30;;
16304;SDS011;8261;47.678;-122.174;2023-06-26T10:51:01;3.00;;;2.57;;
16304;SDS011;8261;47.678;-122.174;2023-06-26T10:53:44;4.33;;;2.60;;
16304;SDS011;8261;47.678;-122.174;2023-06-26T10:59:14;5.57;;;2.70;;
16304;SDS011;8261;47.678;-122.174;2023-06-26T11:01:47;5.93;;;2.60;;
16304;SDS011;8261;47.678;-122.174;2023-06-26T11:04:37;3.03;;;2.63;;
16304;SDS011;8261;47.678;-122.174;2023-06-26T11:07:18;4.60;;;2.60;;
16304;SDS011;8261;47.678;-122.174;2023-06-26T11:09:57;3.87;;;2.10;;
16304;SDS011;8261;47.678;-122.174;2023-06-26T11:12:34;2.80;;;2.43;;
16304;SDS011;8261;47.678;-122.174;2023-06-26T11:15:09;5.43;;;2.47;;
16304;SDS011;8261;47.678;-122.174;2023-06-26T11:17:42;3.73;;;2.67;;
16304;SDS011;8261;47.678;-122.174;2023-06-26T11:20:14;4.57;;;2.77;;
16304;SDS011;8261;47.678;-122.174;2023-06-26T11:22:49;6.00;;;2.73;;
16304;SDS011;8261;47.678;-122.174;2023-06-26T11:25:25;4.60;;;2.73;;
16304;SDS011;8261;47.678;-122.174;2023-06-26T11:27:59;2.87;;;2.50;;
16304;SDS011;8261;47.678;-122.174;2023-06-26T11:30:31;5.07;;;3.03;;
16304;SDS011;8261;47.678;-122.174;2023-06-26T11:33:05;4.50;;;2.77;;
16304;SDS011;8261;47.678;-122.174;2023-06-26T11:35:38;4.73;;;2.50;;
16304;SDS011;8261;47.678;-122.174;2023-06-26T11:38:11;3.30;;;2.70;;
16304;SDS011;8261;47.678;-122.174;2023-06-26T11:40:44;3.80;;;2.87;;
16304;SDS011;8261;47.678;-122.174;2023-06-26T11:43:15;4.57;;;3.07;;
16304;SDS011;8261;47.678;-122.174;2023-06-26T11:45:47;3.80;;;2.70;;
16304;SDS011;8261;47.678;-122.174;2023-06-26T11:48:20;5.97;;;2.90;;
16304;SDS011;8261;47.678;-122.174;2023-06-26T11:50:51;3.40;;;2.80;;
16304;SDS011;8261;47.678;-122.174;2023-06-26T11:53:25;4.10;;;2.60;;
16304;SDS011;8261;47.678;-122.174;2023-06-26T11:55:57;4.93;;;2.80;;
16304;SDS011;8261;47.678;-122.174;2023-06-26T11:58:29;2.87;;;2.53;;
16304;SDS011;8261;47.678;-122.174;2023-06-26T12:01:01;3.53;;;3.20;;
16304;SDS011;8261;47.678;-122.174;2023-06-26T12:03:32;4.57;;;3.27;;
16304;SDS011;8261;47.678;-122.174;2023-06-26T12:06:04;5.37;;;2.77;;
16304;SDS011;8261;47.678;-122.174;2023-06-26T12:08:37;6.30;;;3.07;;
16304;SDS011;8261;47.678;-122.174;2023-06-26T12:11:09;3.60;;;2.90;;
16304;SDS011;8261;47.678;-122.174;2023-06-26T12:13:41;6.13;;;2.97;;
16304;SDS011;8261;47.678;-122.174;2023-06-26T12:16:14;5.23;;;2.87;;
16304;SDS011;8261;47.678;-122.174;2023-06-26T12:18:46;6.20;;;3.20;;
16304;SDS011;8261;47.678;-122.174;2023-06-26T12:21:44;6.07;;;2.80;;
16304;SDS011;8261;47.678;-122.174;2023-06-26T12:24:18;4.77;;;3.40;;
16304;SDS011;8261;47.678;-122.174;2023-06-26T12:26:51;4.63;;;2.80;;
16304;SDS011;8261;47.678;-122.174;2023-06-26T12:29:29;3.73;;;2.80;;
16304;SDS011;8261;47.678;-122.174;2023-06-26T12:32:02;3.63;;;2.73;;
16304;SDS011;8261;47.678;-122.174;2023-06-26T12:34:34;4.83;;;3.00;;
16304;SDS011;8261;47.678;-122.174;2023-06-26T12:37:07;3.00;;;2.67;;
16304;SDS011;8261;47.678;-122.174;2023-06-26T12:39:50;4.10;;;2.90;;
16304;SDS011;8261;47.678;-122.174;2023-06-26T12:42:22;2.97;;;2.60;;
16304;SDS011;8261;47.678;-122.174;2023-06-26T12:44:54;4.50;;;2.80;;
16304;SDS011;8261;47.678;-122.174;2023-06-26T12:47:26;4.40;;;3.07;;
16304;SDS011;8261;47.678;-122.174;2023-06-26T12:50:04;5.20;;;3.00;;
16304;SDS011;8261;47.678;-122.174;2023-06-26T12:52:35;5.63;;;3.10;;
16304;SDS011;8261;47.678;-122.174;2023-06-26T12:55:10;5.40;;;2.63;;
16304;SDS011;8261;47.678;-122.174;2023-06-26T12:57:41;4.33;;;2.80;;
16304;SDS011;8261;47.678;-122.174;2023-06-26T13:00:12;5.87;;;3.40;;
16304;SDS011;8261;47.678;-122.174;2023-06-26T13:02:44;5.10;;;2.93;;
16304;SDS011;8261;47.678;-122.174;2023-06-26T13:05:16;6.63;;;3.27;;
16304;SDS011;8261;47.678;-122.174;2023-06-26T13:07:47;4.33;;;2.90;;
16304;SDS011;8261;47.678;-122.174;2023-06-26T13:10:20;6.23;;;3.10;;
16304;SDS011;8261;47.678;-122.174;2023-06-26T13:12:52;6.07;;;3.40;;
16304;SDS011;8261;47.678;-122.174;2023-06-26T13:15:23;4.93;;;3.30;;
16304;SDS011;8261;47.678;-122.174;2023-06-26T13:17:55;6.47;;;3.40;;
16304;SDS011;8261;47.678;-122.174;2023-06-26T13:20:26;6.53;;;3.60;;
16304;SDS011;8261;47.678;-122.174;2023-06-26T13:22:58;7.43;;;4.73;;
16304;SDS011;8261;47.678;-122.174;2023-06-26T13:25:30;6.60;;;4.90;;
16304;SDS011;8261;47.678;-122.174;2023-06-26T13:28:02;10.63;;;5.03;;
16304;SDS011;8261;47.678;-122.174;2023-06-26T13:30:33;11.00;;;4.90;;
16304;SDS011;8261;47.678;-122.174;2023-06-26T13:33:05;7.83;;;6.17;;
16304;SDS011;8261;47.678;-122.174;2023-06-26T13:35:38;8.10;;;5.50;;
16304;SDS011;8261;47.678;-122.174;2023-06-26T13:38:09;6.37;;;5.07;;
16304;SDS011;8261;47.678;-122.174;2023-06-26T13:40:42;8.17;;;5.27;;
16304;SDS011;8261;47.678;-122.174;2023-06-26T13:43:14;11.37;;;5.57;;
16304;SDS011;8261;47.678;-122.174;2023-06-26T13:45:49;6.97;;;5.33;;
16304;SDS011;8261;47.678;-122.174;2023-06-26T13:48:21;7.87;;;5.23;;
16304;SDS011;8261;47.678;-122.174;2023-06-26T13:50:54;9.50;;;5.97;;
16304;SDS011;8261;47.678;-122.174;2023-06-26T13:53:26;6.47;;;4.80;;
16304;SDS011;8261;47.678;-122.174;2023-06-26T13:56:02;6.53;;;5.00;;
16304;SDS011;8261;47.678;-122.174;2023-06-26T13:58:34;8.70;;;5.80;;
16304;SDS011;8261;47.678;-122.174;2023-06-26T14:01:06;6.60;;;5.17;;
16304;SDS011;8261;47.678;-122.174;2023-06-26T14:03:37;7.50;;;5.73;;
16304;SDS011;8261;47.678;-122.174;2023-06-26T14:06:08;8.17;;;5.10;;
16304;SDS011;8261;47.678;-122.174;2023-06-26T14:08:40;8.20;;;5.50;;
16304;SDS011;8261;47.678;-122.174;2023-06-26T14:11:12;7.10;;;5.50;;
16304;SDS011;8261;47.678;-122.174;2023-06-26T14:13:44;10.00;;;5.63;;
16304;SDS011;8261;47.678;-122.174;2023-06-26T14:16:15;6.77;;;5.63;;
16304;SDS011;8261;47.678;-122.174;2023-06-26T14:18:49;7.03;;;4.97;;
16304;SDS011;8261;47.678;-122.174;2023-06-26T14:21:20;9.17;;;4.97;;
16304;SDS011;8261;47.678;-122.174;2023-06-26T14:23:51;6.83;;;4.60;;
16304;SDS011;8261;47.678;-122.174;2023-06-26T14:26:24;8.40;;;5.07;;
16304;SDS011;8261;47.678;-122.174;2023-06-26T14:28:57;8.80;;;5.30;;
16304;SDS011;8261;47.678;-122.174;2023-06-26T14:31:29;6.10;;;4.97;;
16304;SDS011;8261;47.678;-122.174;2023-06-26T14:34:03;9.00;;;5.23;;
16304;SDS011;8261;47.678;-122.174;2023-06-26T14:36:35;6.13;;;4.80;;
16304;SDS011;8261;47.678;-122.174;2023-06-26T14:39:06;7.23;;;5.10;;
16304;SDS011;8261;47.678;-122.174;2023-06-26T14:41:41;8.47;;;5.17;;
16304;SDS011;8261;47.678;-122.174;2023-06-26T14:44:12;8.87;;;5.77;;
16304;SDS011;8261;47.678;-122.174;2023-06-26T14:46:44;6.70;;;5.67;;
16304;SDS011;8261;47.678;-122.174;2023-06-26T14:49:16;7.43;;;5.50;;
16304;SDS011;8261;47.678;-122.174;2023-06-26T14:51:48;7.07;;;5.50;;
16304;SDS011;8261;47.678;-122.174;2023-06-26T14:54:19;6.77;;;5.67;;